Terminal Aerodrome Forecast
Issued by NWS

Home | Current Version | Previous Version | Graphics & Text | Print | Product List | Glossary On
Versions: 1 2 3 4 5 6 7 8 9 10 11 12 13 14 15 16 17 18 19 20 21 22 23 24 25 26 27 28 29
180
FTUS43 KABR 111300 AAA
TAFPIR
TAF AMD
KPIR 111300Z 1113/1212 13009KT P6SM OVC025
     FM111500 VRB05KT 2SM -SN OVC007
     FM120300 35010KT P6SM OVC015=

USA.gov is the U.S. government's official web portal to all federal, state and local government web resources and services.